Time;durP1;ratioP1;P1;durP2;ratioP2;P2;SDS_P1;SDS_P2;PMS_P1;PMS_P2;Temp;Humidity;BMP_temperature;BMP_pressure;BME280_temperature;BME280_humidity;BME280_pressure;Samples;Min_cycle;Max_cycle;Signal;HPM_P1;HPM_P2
2023/01/09 00:02:03;;;;;;;0.20;0.20;;;7.60;99.90;;;;;;5094950;28;20027;-63
2023/01/09 00:04:29;;;;;;;0.22;0.20;;;7.60;99.90;;;;;;5091113;28;20028;-63
2023/01/09 00:06:55;;;;;;;0.82;0.30;;;7.60;99.90;;;;;;5074421;28;20031;-63
2023/01/09 00:09:23;;;;;;;1.35;0.50;;;7.60;99.90;;;;;;5089636;28;20044;-63
2023/01/09 00:11:49;;;;;;;2.25;0.30;;;7.50;99.90;;;;;;5083271;28;20049;-63
2023/01/09 00:14:16;;;;;;;1.45;0.20;;;7.50;99.90;;;;;;5091211;28;20028;-63
2023/01/09 00:16:42;;;;;;;1.00;0.20;;;7.40;99.90;;;;;;5088277;27;20021;-63
2023/01/09 00:19:08;;;;;;;2.30;0.30;;;7.40;99.90;;;;;;5090890;28;20020;-63
2023/01/09 00:21:34;;;;;;;1.35;0.30;;;7.40;99.90;;;;;;5089002;28;20020;-63
2023/01/09 00:24:00;;;;;;;0.85;0.20;;;7.40;99.90;;;;;;5073006;28;20408;-63
2023/01/09 00:26:25;;;;;;;1.58;0.30;;;7.40;99.90;;;;;;5088418;28;20024;-63
2023/01/09 00:28:52;;;;;;;0.63;0.30;;;7.40;99.90;;;;;;5089018;28;20516;-63
2023/01/09 00:31:19;;;;;;;0.68;0.30;;;7.30;99.90;;;;;;5087973;28;20073;-63
2023/01/09 00:33:55;;;;;;;1.08;0.30;;;7.30;99.90;;;;;;5089791;28;20020;-63
2023/01/09 00:36:20;;;;;;;0.65;0.20;;;7.30;99.90;;;;;;5092548;28;20020;-63
2023/01/09 00:38:46;;;;;;;3.08;0.40;;;7.20;99.90;;;;;;5088279;28;20073;-63
2023/01/09 00:41:18;;;;;;;1.38;0.40;;;7.20;99.90;;;;;;5088660;28;20389;-63
2023/01/09 00:43:52;;;;;;;0.70;0.30;;;7.20;99.90;;;;;;5072989;28;20534;-63
2023/01/09 00:46:19;;;;;;;1.00;0.30;;;7.10;99.90;;;;;;5075420;28;20027;-63
2023/01/09 00:48:48;;;;;;;2.15;0.30;;;7.10;99.90;;;;;;5094135;28;20024;-63
2023/01/09 00:51:15;;;;;;;0.45;0.30;;;7.00;99.90;;;;;;5090106;28;20103;-63
2023/01/09 00:53:42;;;;;;;0.93;0.30;;;7.00;99.90;;;;;;5096621;28;20024;-63
2023/01/09 00:56:13;;;;;;;0.90;0.30;;;7.00;99.90;;;;;;5088456;28;20036;-63
2023/01/09 00:58:39;;;;;;;1.77;0.52;;;6.90;99.90;;;;;;5094421;28;20085;-63
2023/01/09 01:01:04;;;;;;;1.20;0.30;;;6.90;99.90;;;;;;5091932;28;20028;-63
2023/01/09 01:03:30;;;;;;;1.90;0.50;;;6.90;99.90;;;;;;5095148;28;20446;-63
2023/01/09 01:08:40;;;;;;;1.90;0.40;;;6.80;99.90;;;;;;5092019;28;20097;-63
2023/01/09 01:11:09;;;;;;;1.15;0.45;;;6.80;99.90;;;;;;5074023;28;20032;-63
2023/01/09 01:13:35;;;;;;;1.27;0.50;;;6.80;99.90;;;;;;5091708;28;20039;-63
2023/01/09 01:16:04;;;;;;;1.45;0.55;;;6.70;99.90;;;;;;5093953;28;20477;-63
2023/01/09 01:18:30;;;;;;;1.52;0.50;;;6.70;99.90;;;;;;5091921;28;20024;-63
2023/01/09 01:20:56;;;;;;;2.03;0.50;;;6.70;99.90;;;;;;5091790;28;20082;-63
2023/01/09 01:23:21;;;;;;;1.80;0.50;;;6.70;99.90;;;;;;5101039;28;20051;-63
2023/01/09 01:25:48;;;;;;;2.10;0.50;;;6.60;99.90;;;;;;5099075;28;20020;-63
2023/01/09 01:28:13;;;;;;;2.42;0.40;;;6.60;99.90;;;;;;5100528;28;20084;-63
2023/01/09 01:30:40;;;;;;;2.05;0.40;;;6.60;99.90;;;;;;5096871;28;20028;-63
2023/01/09 01:33:07;;;;;;;2.13;0.60;;;6.60;99.90;;;;;;5102436;28;20031;-63
2023/01/09 01:35:33;;;;;;;2.65;0.68;;;6.50;99.90;;;;;;5095535;28;20041;-63
2023/01/09 01:37:58;;;;;;;1.63;0.63;;;6.50;99.90;;;;;;5095817;28;20107;-63
2023/01/09 01:40:24;;;;;;;2.80;0.50;;;6.50;99.90;;;;;;5093630;28;20111;-63
2023/01/09 01:42:51;;;;;;;2.60;0.47;;;6.50;99.90;;;;;;5093896;28;20051;-63
2023/01/09 01:45:28;;;;;;;1.70;0.50;;;6.50;99.90;;;;;;5093585;28;20020;-63
2023/01/09 01:48:03;;;;;;;1.83;0.50;;;6.50;99.90;;;;;;5090971;27;20078;-63
2023/01/09 01:50:52;;;;;;;2.03;0.65;;;6.50;99.90;;;;;;5095101;28;20060;-63
2023/01/09 01:53:24;;;;;;;1.58;0.50;;;6.40;99.90;;;;;;5061349;28;20061;-63
2023/01/09 01:56:04;;;;;;;4.00;0.63;;;6.40;99.90;;;;;;5091075;28;20016;-63
2023/01/09 01:58:32;;;;;;;2.85;0.60;;;6.30;99.90;;;;;;5090972;28;20102;-63
2023/01/09 02:00:57;;;;;;;2.75;0.60;;;6.30;99.90;;;;;;5100259;28;20107;-63
2023/01/09 02:03:27;;;;;;;1.55;0.60;;;6.30;99.90;;;;;;5091565;28;20095;-63
2023/01/09 02:05:52;;;;;;;2.42;0.60;;;6.30;99.90;;;;;;5096586;28;20107;-63
2023/01/09 02:08:19;;;;;;;1.77;0.47;;;6.20;99.90;;;;;;5093427;28;20620;-63
2023/01/09 02:10:45;;;;;;;3.25;0.60;;;6.20;99.90;;;;;;5092486;28;20024;-63
2023/01/09 02:13:11;;;;;;;1.50;0.50;;;6.20;99.90;;;;;;5122493;27;20029;-63
2023/01/09 02:15:42;;;;;;;2.33;0.70;;;6.10;99.90;;;;;;5104668;27;20020;-63
2023/01/09 02:18:30;;;;;;;2.15;0.70;;;6.20;99.90;;;;;;5090234;28;20420;-63
2023/01/09 02:21:16;;;;;;;2.17;0.73;;;6.10;99.90;;;;;;5091740;28;20515;-63
2023/01/09 02:23:50;;;;;;;1.42;0.70;;;6.10;99.90;;;;;;5095001;27;20505;-63
2023/01/09 02:26:46;;;;;;;3.33;0.70;;;6.00;99.90;;;;;;5099126;28;20023;-63
2023/01/09 02:29:15;;;;;;;4.20;0.90;;;6.00;99.90;;;;;;5098370;27;20013;-63
2023/01/09 02:31:57;;;;;;;2.05;0.65;;;6.00;99.90;;;;;;5095431;28;20028;-63
2023/01/09 02:34:47;;;;;;;3.97;0.90;;;6.00;99.90;;;;;;5091294;28;20063;-63
2023/01/09 02:37:25;;;;;;;2.33;0.80;;;6.00;99.90;;;;;;5093117;28;20085;-63
2023/01/09 02:40:12;;;;;;;2.35;0.82;;;6.00;99.90;;;;;;5095867;28;20020;-63
2023/01/09 02:42:40;;;;;;;3.03;0.70;;;6.00;99.90;;;;;;5113534;27;20034;-63
2023/01/09 02:45:06;;;;;;;3.35;0.80;;;5.90;99.90;;;;;;5092804;28;20028;-63
2023/01/09 02:47:38;;;;;;;4.82;0.90;;;5.90;99.90;;;;;;5095513;28;20039;-63
2023/01/09 02:50:08;;;;;;;5.45;1.05;;;5.90;99.90;;;;;;5090107;28;20027;-63
2023/01/09 02:52:57;;;;;;;2.58;0.98;;;5.90;99.90;;;;;;5090275;28;20122;-63
2023/01/09 02:55:49;;;;;;;5.30;0.98;;;5.90;99.90;;;;;;5089390;28;20028;-63
2023/01/09 02:58:53;;;;;;;7.50;1.90;;;5.90;99.90;;;;;;5092574;28;20594;-63
2023/01/09 03:01:26;;;;;;;3.20;1.00;;;5.90;99.90;;;;;;5106686;27;20027;-63
2023/01/09 03:03:58;;;;;;;4.93;1.33;;;5.90;99.90;;;;;;5115422;27;20043;-63
2023/01/09 03:06:40;;;;;;;2.08;0.95;;;5.80;99.90;;;;;;5102990;27;20070;-64
2023/01/09 03:09:12;;;;;;;4.97;0.98;;;5.90;99.90;;;;;;5104737;27;20055;-63
2023/01/09 03:11:45;;;;;;;2.97;1.10;;;5.90;99.90;;;;;;5101268;28;20030;-63
2023/01/09 03:14:15;;;;;;;5.03;1.05;;;5.90;99.90;;;;;;5100852;28;20481;-63
2023/01/09 03:16:44;;;;;;;6.03;1.23;;;5.80;99.90;;;;;;5103486;28;20076;-63
2023/01/09 03:19:14;;;;;;;4.25;1.48;;;5.80;99.90;;;;;;5075718;28;20071;-63
2023/01/09 03:21:42;;;;;;;4.10;1.00;;;5.70;99.90;;;;;;5100417;28;20023;-63
2023/01/09 03:24:08;;;;;;;2.38;1.13;;;5.70;99.90;;;;;;5101169;28;20038;-63
2023/01/09 03:26:34;;;;;;;3.67;1.05;;;5.70;99.90;;;;;;5104622;28;20053;-63
2023/01/09 03:29:00;;;;;;;3.85;1.35;;;5.70;99.90;;;;;;5104508;28;20035;-63
2023/01/09 03:31:25;;;;;;;4.50;1.10;;;5.70;99.90;;;;;;5101557;28;20085;-63
2023/01/09 03:33:51;;;;;;;2.40;0.80;;;5.70;99.90;;;;;;5113566;27;20122;-63
2023/01/09 03:36:18;;;;;;;3.55;1.15;;;5.70;99.90;;;;;;5103124;28;20024;-63
2023/01/09 03:38:44;;;;;;;2.55;0.98;;;5.60;99.90;;;;;;5096397;28;20499;-63
2023/01/09 03:41:10;;;;;;;7.45;2.67;;;5.60;99.90;;;;;;5121028;27;20028;-63
2023/01/09 03:43:36;;;;;;;5.35;1.45;;;5.60;99.90;;;;;;5094900;28;20028;-63
2023/01/09 03:46:02;;;;;;;3.70;1.10;;;5.60;99.90;;;;;;5105103;28;20481;-63
2023/01/09 03:48:28;;;;;;;5.10;1.00;;;5.60;99.90;;;;;;5095896;28;20056;-63
2023/01/09 03:50:54;;;;;;;2.72;0.85;;;5.60;99.90;;;;;;5097791;28;20051;-63
2023/01/09 03:53:22;;;;;;;3.40;1.10;;;5.50;99.90;;;;;;5097820;28;20035;-63
2023/01/09 03:55:50;;;;;;;4.72;1.63;;;5.50;99.90;;;;;;5105254;28;20072;-63
2023/01/09 03:58:16;;;;;;;4.88;1.08;;;5.60;99.90;;;;;;5100681;28;20012;-63
2023/01/09 04:00:44;;;;;;;3.63;1.27;;;5.50;99.90;;;;;;5097754;28;20044;-63
2023/01/09 04:03:11;;;;;;;3.35;1.05;;;5.50;99.90;;;;;;5099659;28;20025;-63
2023/01/09 04:05:37;;;;;;;6.13;1.27;;;5.50;99.90;;;;;;5096006;28;20020;-63
2023/01/09 04:08:03;;;;;;;4.68;1.20;;;5.50;99.90;;;;;;5070648;28;20127;-63
2023/01/09 04:10:29;;;;;;;5.18;2.20;;;5.50;99.90;;;;;;5098700;28;20028;-63
2023/01/09 04:12:55;;;;;;;6.28;1.10;;;5.50;99.90;;;;;;5095054;28;20023;-63
2023/01/09 04:15:21;;;;;;;7.70;1.60;;;5.50;99.90;;;;;;5093227;28;20028;-63
2023/01/09 04:17:46;;;;;;;4.30;1.35;;;5.40;99.90;;;;;;5090367;28;20480;-63
2023/01/09 04:20:12;;;;;;;4.10;1.33;;;5.50;99.90;;;;;;5103215;28;20521;-63
2023/01/09 04:22:39;;;;;;;4.75;1.33;;;5.40;99.90;;;;;;5101161;28;20030;-63
2023/01/09 04:25:05;;;;;;;5.78;1.42;;;5.40;99.90;;;;;;5100613;28;20024;-63
2023/01/09 04:27:30;;;;;;;6.93;1.35;;;5.40;99.90;;;;;;5089212;28;20066;-63
2023/01/09 04:29:56;;;;;;;5.30;1.42;;;5.40;99.90;;;;;;5094461;28;20080;-63
2023/01/09 04:32:21;;;;;;;7.28;1.90;;;5.40;99.90;;;;;;5098815;28;20051;-63
2023/01/09 04:34:47;;;;;;;4.57;1.85;;;5.40;99.90;;;;;;5098696;28;20473;-63
2023/01/09 04:37:13;;;;;;;6.80;1.80;;;5.40;99.90;;;;;;5103629;28;20486;-63
2023/01/09 04:39:42;;;;;;;11.02;2.17;;;5.40;99.90;;;;;;5102749;28;20031;-63
2023/01/09 04:42:08;;;;;;;6.35;2.30;;;5.40;99.90;;;;;;5100265;28;20102;-63
2023/01/09 04:44:33;;;;;;;5.90;2.00;;;5.40;99.90;;;;;;5073364;28;20541;-63
2023/01/09 04:46:59;;;;;;;5.85;2.58;;;5.40;99.90;;;;;;5099185;28;20055;-63
2023/01/09 04:49:24;;;;;;;13.00;2.47;;;5.40;99.90;;;;;;5097392;28;20031;-63
2023/01/09 04:51:50;;;;;;;6.05;2.25;;;5.40;99.90;;;;;;5081710;28;20024;-63
2023/01/09 04:54:15;;;;;;;8.25;2.75;;;5.50;99.90;;;;;;5096214;28;20103;-63
2023/01/09 04:56:41;;;;;;;5.53;2.60;;;5.50;99.90;;;;;;5096147;28;20106;-63
2023/01/09 04:59:07;;;;;;;7.43;2.45;;;5.40;99.90;;;;;;5096847;28;20081;-63
2023/01/09 05:01:33;;;;;;;12.57;2.78;;;5.50;99.90;;;;;;5099010;28;20469;-63
2023/01/09 05:03:59;;;;;;;10.85;2.35;;;5.50;99.90;;;;;;5092400;28;20076;-63
2023/01/09 05:06:25;;;;;;;8.82;2.10;;;5.50;99.90;;;;;;5079259;28;20056;-63
2023/01/09 05:08:50;;;;;;;6.05;1.88;;;5.50;99.90;;;;;;5100861;28;20074;-63
2023/01/09 05:11:16;;;;;;;7.28;2.30;;;5.60;99.90;;;;;;5103416;28;20480;-63
2023/01/09 05:13:42;;;;;;;6.85;2.00;;;5.60;99.90;;;;;;5076934;28;20164;-63
2023/01/09 05:16:08;;;;;;;5.10;2.05;;;5.60;99.90;;;;;;5096173;28;20019;-63
2023/01/09 05:18:34;;;;;;;5.32;1.85;;;5.70;99.90;;;;;;5101741;28;20017;-63
2023/01/09 05:21:00;;;;;;;9.18;1.48;;;5.70;99.90;;;;;;5101658;28;20020;-63
2023/01/09 05:23:25;;;;;;;6.47;1.35;;;5.70;99.90;;;;;;5102541;28;20053;-63
2023/01/09 05:25:51;;;;;;;4.10;1.20;;;5.80;99.90;;;;;;5101568;28;20062;-63
2023/01/09 05:28:16;;;;;;;5.13;1.67;;;5.80;99.90;;;;;;5070814;28;20362;-63
2023/01/09 05:30:42;;;;;;;6.28;1.65;;;5.80;99.90;;;;;;5084342;28;20027;-63
2023/01/09 05:33:07;;;;;;;8.63;1.40;;;5.80;99.90;;;;;;5101236;28;20027;-63
2023/01/09 05:35:33;;;;;;;4.00;1.55;;;5.80;99.90;;;;;;5097183;28;20039;-63
2023/01/09 05:37:58;;;;;;;6.43;1.55;;;5.80;99.90;;;;;;5080710;28;20051;-63
2023/01/09 05:40:24;;;;;;;6.53;1.30;;;5.80;99.90;;;;;;5101498;28;20023;-64
2023/01/09 05:42:49;;;;;;;6.35;1.60;;;5.80;99.90;;;;;;5108225;28;20031;-63
2023/01/09 05:45:15;;;;;;;9.52;1.42;;;5.80;99.90;;;;;;5102051;28;20488;-63
2023/01/09 05:47:44;;;;;;;7.13;1.25;;;5.80;99.90;;;;;;5108001;28;20529;-63
2023/01/09 05:50:10;;;;;;;7.75;1.30;;;5.90;99.90;;;;;;5097419;28;20132;-63
2023/01/09 05:52:36;;;;;;;8.13;1.52;;;5.90;99.90;;;;;;5102498;28;20524;-63
2023/01/09 05:55:03;;;;;;;6.82;1.05;;;5.90;99.90;;;;;;5095306;28;20063;-63
2023/01/09 05:57:28;;;;;;;9.93;1.38;;;6.00;99.90;;;;;;5104453;28;20016;-63
2023/01/09 05:59:54;;;;;;;6.60;1.17;;;6.00;99.90;;;;;;5083591;28;20045;-63
2023/01/09 06:02:20;;;;;;;9.98;1.70;;;6.10;99.90;;;;;;5099364;28;20024;-63
2023/01/09 06:04:45;;;;;;;7.15;1.00;;;6.10;99.90;;;;;;5100888;28;20454;-63
2023/01/09 06:07:11;;;;;;;12.80;1.73;;;6.20;99.90;;;;;;5080166;28;20032;-63
2023/01/09 06:09:37;;;;;;;8.60;1.15;;;6.20;99.90;;;;;;5105488;28;20023;-63
2023/01/09 06:12:02;;;;;;;9.70;1.55;;;6.20;99.90;;;;;;5104226;28;20085;-63
2023/01/09 06:14:28;;;;;;;6.32;1.02;;;6.30;99.90;;;;;;5106863;28;20070;-63
2023/01/09 06:16:54;;;;;;;5.53;1.25;;;6.30;99.90;;;;;;5106277;28;20057;-63
2023/01/09 06:19:19;;;;;;;4.47;1.15;;;6.30;99.90;;;;;;5099653;28;20047;-63
2023/01/09 06:21:45;;;;;;;9.27;1.10;;;6.40;99.90;;;;;;5083724;28;20052;-63
2023/01/09 06:24:10;;;;;;;9.65;1.23;;;6.40;99.90;;;;;;5098450;28;20131;-63
2023/01/09 06:26:36;;;;;;;4.95;1.20;;;6.40;99.90;;;;;;5107935;28;20023;-63
2023/01/09 06:29:01;;;;;;;4.97;1.02;;;6.50;99.90;;;;;;5102523;28;20389;-63
2023/01/09 06:31:27;;;;;;;8.68;1.27;;;6.50;99.90;;;;;;5107627;28;20042;-63
2023/01/09 06:33:53;;;;;;;2.70;0.80;;;6.50;99.90;;;;;;5101219;28;20035;-63
2023/01/09 06:36:19;;;;;;;9.23;1.60;;;6.50;99.90;;;;;;5101156;28;20381;-63
2023/01/09 06:38:44;;;;;;;10.95;1.23;;;6.50;99.90;;;;;;5102614;28;20031;-63
2023/01/09 06:41:10;;;;;;;8.05;1.55;;;6.50;99.90;;;;;;5086587;28;20024;-63
2023/01/09 06:43:36;;;;;;;9.60;1.90;;;6.50;99.90;;;;;;5102450;28;20128;-63
2023/01/09 06:46:03;;;;;;;5.85;1.33;;;6.50;99.90;;;;;;5109582;28;20042;-63
2023/01/09 06:48:28;;;;;;;8.82;1.60;;;6.60;99.90;;;;;;5111445;28;20041;-63
2023/01/09 06:50:54;;;;;;;11.40;2.30;;;6.60;99.90;;;;;;5112309;28;20070;-63
2023/01/09 06:53:19;;;;;;;7.60;1.23;;;6.60;99.90;;;;;;5091681;28;20383;-63
2023/01/09 06:55:45;;;;;;;7.78;1.25;;;6.60;99.90;;;;;;5109015;28;20492;-63
2023/01/09 06:58:12;;;;;;;6.78;1.13;;;6.70;99.90;;;;;;5099437;28;20017;-63
2023/01/09 07:00:38;;;;;;;7.68;0.93;;;6.70;99.90;;;;;;5086628;28;20054;-63
2023/01/09 07:03:04;;;;;;;8.82;1.40;;;6.70;99.90;;;;;;5108348;28;20024;-63
2023/01/09 07:05:31;;;;;;;8.95;1.38;;;6.70;99.90;;;;;;5075959;28;20555;-63
2023/01/09 07:07:56;;;;;;;6.60;1.40;;;6.70;99.90;;;;;;5093369;28;20036;-63
2023/01/09 07:10:22;;;;;;;7.78;1.50;;;6.70;99.90;;;;;;5074643;28;20273;-63
2023/01/09 07:12:48;;;;;;;10.05;1.65;;;6.70;99.90;;;;;;5071739;28;20028;-63
2023/01/09 07:15:14;;;;;;;8.25;1.27;;;6.70;99.90;;;;;;5115243;27;20048;-63
2023/01/09 07:17:40;;;;;;;13.63;1.67;;;6.70;99.90;;;;;;5100985;28;20031;-63
2023/01/09 07:20:06;;;;;;;10.23;1.77;;;6.70;99.90;;;;;;5100804;28;20020;-63
2023/01/09 07:22:32;;;;;;;7.78;1.60;;;6.80;99.90;;;;;;5099343;27;20024;-63
2023/01/09 07:24:58;;;;;;;8.73;1.33;;;6.80;99.90;;;;;;5110075;28;20373;-63
2023/01/09 07:27:23;;;;;;;8.23;1.58;;;6.70;99.90;;;;;;5090890;28;20019;-63
2023/01/09 07:29:50;;;;;;;9.00;2.45;;;6.60;99.90;;;;;;5107694;28;20115;-63
2023/01/09 07:32:16;;;;;;;9.30;1.40;;;6.60;99.90;;;;;;5094139;28;20020;-63
2023/01/09 07:34:41;;;;;;;7.95;2.15;;;6.60;99.90;;;;;;5107033;28;20102;-63
2023/01/09 07:37:07;;;;;;;6.85;1.45;;;6.60;99.90;;;;;;5075817;28;20495;-63
2023/01/09 07:39:32;;;;;;;7.50;1.33;;;6.60;99.90;;;;;;5107662;28;20061;-63
2023/01/09 07:41:58;;;;;;;7.43;1.48;;;6.60;99.90;;;;;;5108709;28;20464;-63
2023/01/09 07:44:23;;;;;;;9.98;1.73;;;6.70;99.90;;;;;;5110981;28;20469;-63
2023/01/09 07:46:49;;;;;;;9.50;2.30;;;6.70;99.90;;;;;;5110189;28;20027;-63
2023/01/09 07:49:14;;;;;;;7.30;1.27;;;6.70;99.90;;;;;;5108029;28;20019;-63
2023/01/09 07:51:42;;;;;;;7.18;1.50;;;6.70;99.90;;;;;;5107845;28;20035;-63
2023/01/09 07:54:08;;;;;;;7.82;1.70;;;6.80;99.90;;;;;;5092463;28;20024;-63
2023/01/09 07:56:34;;;;;;;7.50;2.20;;;6.70;99.90;;;;;;5089923;28;20027;-63
2023/01/09 07:59:00;;;;;;;7.43;1.80;;;6.80;99.90;;;;;;5106679;28;20026;-63
2023/01/09 08:01:25;;;;;;;4.47;1.92;;;6.80;99.90;;;;;;5092866;28;20008;-63
2023/01/09 08:03:51;;;;;;;10.65;1.67;;;6.80;99.90;;;;;;5116758;27;20031;-63
2023/01/09 08:06:16;;;;;;;8.55;2.95;;;6.80;99.90;;;;;;5103144;28;20473;-63
2023/01/09 08:08:42;;;;;;;7.50;1.88;;;6.80;99.90;;;;;;5091786;28;20047;-64
2023/01/09 08:11:07;;;;;;;8.75;2.28;;;6.80;99.90;;;;;;5092068;28;20035;-63
2023/01/09 08:13:33;;;;;;;5.50;2.00;;;6.80;99.90;;;;;;5106826;28;20030;-64
2023/01/09 08:15:59;;;;;;;8.90;3.50;;;6.80;99.90;;;;;;5076032;28;20028;-63
2023/01/09 08:18:25;;;;;;;6.20;3.63;;;6.80;99.90;;;;;;5092634;28;20089;-64
2023/01/09 08:20:50;;;;;;;8.98;2.53;;;6.80;99.90;;;;;;5092291;28;20028;-63
2023/01/09 08:23:16;;;;;;;5.35;2.08;;;6.80;99.90;;;;;;5092587;28;20031;-63
2023/01/09 08:25:41;;;;;;;5.82;2.47;;;6.80;99.90;;;;;;5100016;28;20035;-63
2023/01/09 08:28:08;;;;;;;10.00;2.83;;;6.90;99.90;;;;;;5091791;28;20069;-63
2023/01/09 08:30:34;;;;;;;8.45;2.72;;;6.90;99.90;;;;;;5107716;28;20020;-63
2023/01/09 08:32:59;;;;;;;7.68;2.53;;;6.90;99.90;;;;;;5106715;28;20034;-63
2023/01/09 08:35:25;;;;;;;6.05;2.60;;;7.00;99.90;;;;;;5109695;28;20672;-63
2023/01/09 08:37:51;;;;;;;7.47;2.70;;;7.00;99.90;;;;;;5110262;28;20088;-63
2023/01/09 08:40:17;;;;;;;7.22;3.20;;;7.00;99.90;;;;;;5119782;28;20011;-63
2023/01/09 08:48:11;;;;;;;6.97;2.90;;;7.00;99.90;;;;;;5104143;28;20060;-64
2023/01/09 08:50:37;;;;;;;7.80;2.30;;;7.00;99.90;;;;;;5091855;28;20028;-63
2023/01/09 08:53:02;;;;;;;7.35;3.00;;;7.00;99.90;;;;;;5093654;28;20496;-63
2023/01/09 08:55:28;;;;;;;5.70;2.75;;;7.00;99.90;;;;;;5093430;28;20396;-63
2023/01/09 08:57:54;;;;;;;7.18;3.72;;;7.00;99.90;;;;;;5093831;28;20028;-63
2023/01/09 09:00:22;;;;;;;9.10;3.05;;;7.00;99.90;;;;;;5087965;28;20459;-63
2023/01/09 09:02:56;;;;;;;8.40;3.35;;;7.00;99.90;;;;;;5092787;28;20032;-63
2023/01/09 09:05:22;;;;;;;9.20;3.60;;;7.10;99.90;;;;;;5095643;28;20488;-63
2023/01/09 09:07:49;;;;;;;8.88;3.83;;;7.10;99.90;;;;;;5101280;28;20043;-63
2023/01/09 09:10:18;;;;;;;8.23;2.97;;;7.10;99.90;;;;;;5110922;28;20020;-63
2023/01/09 09:12:46;;;;;;;7.03;2.92;;;7.10;99.90;;;;;;5104302;28;20028;-63
2023/01/09 09:15:12;;;;;;;4.85;2.70;;;7.20;99.90;;;;;;5091672;28;20038;-63
2023/01/09 09:17:39;;;;;;;3.72;2.50;;;7.20;99.90;;;;;;5108700;28;20030;-63
2023/01/09 09:20:06;;;;;;;8.98;2.63;;;7.20;99.90;;;;;;5109530;28;20055;-63
2023/01/09 09:22:31;;;;;;;7.63;2.30;;;7.20;99.90;;;;;;5111033;28;20094;-63
2023/01/09 09:24:57;;;;;;;6.50;2.40;;;7.20;99.90;;;;;;5111413;28;20110;-63
2023/01/09 09:27:23;;;;;;;6.53;2.40;;;7.30;99.90;;;;;;5121411;27;20015;-63
2023/01/09 09:29:48;;;;;;;5.90;2.08;;;7.40;99.90;;;;;;5114295;28;20027;-63
2023/01/09 09:32:14;;;;;;;6.10;2.38;;;7.40;99.90;;;;;;5110896;28;20568;-63
2023/01/09 09:34:39;;;;;;;4.25;2.55;;;7.50;99.90;;;;;;5121804;27;20035;-63
2023/01/09 09:37:05;;;;;;;5.38;2.30;;;7.50;99.90;;;;;;5110380;28;20027;-63
2023/01/09 09:39:31;;;;;;;4.85;1.90;;;7.50;99.90;;;;;;5111074;28;20384;-63
2023/01/09 09:45:02;;;;;;;4.50;2.78;;;7.60;99.90;;;;;;5101008;28;20030;-63
2023/01/09 09:47:44;;;;;;;6.78;3.10;;;7.70;99.90;;;;;;5100511;28;20027;-63
2023/01/09 09:51:03;;;;;;;6.22;3.38;;;7.70;99.90;;;;;;5108757;28;20059;-63
2023/01/09 09:53:35;;;;;;;9.25;4.80;;;7.70;99.90;;;;;;5030048;28;20068;-63
2023/01/09 09:56:01;;;;;;;8.85;4.00;;;7.70;99.90;;;;;;5007797;28;20022;-63
2023/01/09 09:58:36;;;;;;;7.32;4.00;;;7.80;99.90;;;;;;5071083;28;20084;-63
2023/01/09 10:01:04;;;;;;;7.35;3.70;;;7.80;99.90;;;;;;5110980;28;20020;-63
2023/01/09 10:03:45;;;;;;;7.50;4.22;;;7.90;99.90;;;;;;5088824;28;20019;-63
2023/01/09 10:06:20;;;;;;;6.15;4.03;;;7.90;99.90;;;;;;5094414;28;20012;-63
2023/01/09 10:09:00;;;;;;;6.13;3.35;;;8.00;99.90;;;;;;5099783;28;20054;-63
2023/01/09 10:11:43;;;;;;;7.70;3.20;;;8.10;99.90;;;;;;5083637;28;20020;-63
2023/01/09 10:14:10;;;;;;;6.15;2.72;;;8.10;99.90;;;;;;5107838;28;20538;-63
2023/01/09 10:16:49;;;;;;;4.28;2.42;;;8.20;99.90;;;;;;5094814;28;20055;-63
2023/01/09 10:19:28;;;;;;;5.65;3.17;;;8.20;99.90;;;;;;5094332;28;20012;-63
2023/01/09 10:22:17;;;;;;;6.68;2.97;;;8.20;99.90;;;;;;5075898;28;20028;-63
2023/01/09 10:25:11;;;;;;;8.17;3.73;;;8.50;99.90;;;;;;5075684;28;20020;-63
2023/01/09 10:27:56;;;;;;;4.70;2.75;;;9.40;99.90;;;;;;5093158;28;20095;-63
2023/01/09 10:30:43;;;;;;;6.15;2.65;;;9.80;99.90;;;;;;5086981;28;20170;-63
2023/01/09 10:33:34;;;;;;;6.78;2.80;;;9.60;99.90;;;;;;5099407;28;20176;-63
2023/01/09 10:36:19;;;;;;;4.80;2.20;;;9.80;99.90;;;;;;5098894;28;20024;-63
2023/01/09 10:38:49;;;;;;;4.72;2.00;;;10.10;99.90;;;;;;5113078;28;20032;-63
2023/01/09 10:41:23;;;;;;;5.97;2.47;;;10.00;99.90;;;;;;5082503;28;20048;-63
2023/01/09 10:43:55;;;;;;;2.55;1.83;;;9.90;99.90;;;;;;5105357;28;20031;-63
2023/01/09 10:46:37;;;;;;;3.17;1.73;;;9.60;99.90;;;;;;5110243;28;20023;-63
2023/01/09 10:49:05;;;;;;;6.07;2.80;;;9.40;99.90;;;;;;5112414;28;20019;-63
2023/01/09 10:51:39;;;;;;;6.05;2.38;;;9.40;99.90;;;;;;5093226;28;20068;-63
2023/01/09 10:54:13;;;;;;;5.13;2.60;;;9.50;99.90;;;;;;5108714;28;20019;-63
2023/01/09 10:56:43;;;;;;;4.43;2.40;;;9.50;99.90;;;;;;5112763;28;20023;-63
2023/01/09 10:59:09;;;;;;;3.67;2.25;;;9.30;99.90;;;;;;5109130;28;20035;-63
2023/01/09 11:01:38;;;;;;;5.47;2.30;;;9.20;99.90;;;;;;5109596;28;20016;-63
2023/01/09 11:04:28;;;;;;;7.45;2.60;;;9.10;99.90;;;;;;5109905;28;20354;-63
2023/01/09 11:07:26;;;;;;;;;;;9.20;99.90;;;;;;5094775;28;20027;-63
2023/01/09 11:10:07;;;;;;;5.95;2.08;;;9.30;99.90;;;;;;5065327;28;19919;-63
2023/01/09 11:12:34;;;;;;;4.57;2.05;;;9.50;99.90;;;;;;5098898;28;20028;-63
2023/01/09 11:15:14;;;;;;;3.13;1.50;;;9.50;99.90;;;;;;5084168;28;20443;-63
2023/01/09 11:17:41;;;;;;;6.50;2.15;;;9.50;99.90;;;;;;5095778;28;20024;-63
2023/01/09 11:20:18;;;;;;;5.88;1.70;;;9.50;99.90;;;;;;5094969;28;20012;-63
2023/01/09 11:22:46;;;;;;;4.38;1.42;;;9.60;99.90;;;;;;5095840;28;20020;-63
2023/01/09 11:25:14;;;;;;;4.20;1.13;;;9.60;99.90;;;;;;5098498;28;20500;-63
2023/01/09 11:27:39;;;;;;;5.47;2.63;;;9.70;99.90;;;;;;5109428;28;20038;-63
2023/01/09 11:30:08;;;;;;;6.07;0.95;;;9.60;99.90;;;;;;5091160;28;20019;-63
2023/01/09 11:32:34;;;;;;;3.28;1.30;;;9.80;99.90;;;;;;5084698;28;20119;-63
2023/01/09 11:35:00;;;;;;;4.72;1.30;;;9.80;99.90;;;;;;5091974;28;20134;-63
2023/01/09 11:37:30;;;;;;;3.80;0.82;;;9.80;99.90;;;;;;5099965;28;20015;-63
2023/01/09 11:39:58;;;;;;;2.30;1.00;;;9.70;99.90;;;;;;5109207;28;20119;-63
2023/01/09 11:45:21;;;;;;;5.32;1.05;;;9.90;99.90;;;;;;5097837;28;20085;-63
2023/01/09 11:47:47;;;;;;;7.20;1.98;;;10.10;99.90;;;;;;5097766;28;20101;-63
2023/01/09 11:50:23;;;;;;;3.00;1.30;;;10.70;99.90;;;;;;5103770;28;20481;-63
2023/01/09 11:53:15;;;;;;;3.13;1.15;;;11.60;99.90;;;;;;5099361;28;20098;-63
2023/01/09 11:55:42;;;;;;;6.50;1.80;;;12.90;99.90;;;;;;5106990;28;20044;-63
2023/01/09 11:58:20;;;;;;;7.47;1.30;;;13.60;99.90;;;;;;5110837;28;20095;-63
2023/01/09 12:01:16;;;;;;;5.05;1.10;;;13.40;99.90;;;;;;5107120;28;20020;-63
2023/01/09 12:03:55;;;;;;;3.53;1.05;;;13.10;99.90;;;;;;5108252;28;20103;-63
2023/01/09 12:06:46;;;;;;;6.15;1.33;;;13.20;99.90;;;;;;5092134;28;20027;-63
2023/01/09 12:09:24;;;;;;;7.13;1.17;;;14.10;99.90;;;;;;5107401;28;20042;-63
2023/01/09 12:12:01;;;;;;;6.07;1.30;;;14.70;99.40;;;;;;5085048;28;20085;-63
2023/01/09 12:14:52;;;;;;;6.30;1.33;;;14.70;98.70;;;;;;5089203;28;20430;-63
2023/01/09 12:17:29;;;;;;;6.55;1.48;;;14.50;98.00;;;;;;5108487;28;20203;-63
2023/01/09 12:20:33;;;;;;;6.07;1.02;;;14.80;97.90;;;;;;5109243;28;20080;-63
2023/01/09 12:23:22;;;;;;;5.38;1.13;;;16.70;96.10;;;;;;5070440;28;20516;-63
2023/01/09 12:26:12;;;;;;;5.10;1.38;;;17.90;90.90;;;;;;5098783;28;20043;-63
2023/01/09 12:28:46;;;;;;;6.28;0.95;;;18.70;85.50;;;;;;5105230;28;20397;-64
2023/01/09 12:31:31;;;;;;;6.00;0.98;;;18.80;80.70;;;;;;5109908;28;20028;-64
2023/01/09 12:34:23;;;;;;;4.22;0.90;;;17.50;79.10;;;;;;5108336;28;20540;-63
2023/01/09 12:37:04;;;;;;;4.03;1.00;;;16.30;79.90;;;;;;5067938;28;20093;-63
2023/01/09 12:39:49;;;;;;;4.65;1.00;;;15.00;83.60;;;;;;5108553;28;20015;-63
2023/01/09 12:42:31;;;;;;;3.85;0.80;;;14.20;86.60;;;;;;5108752;28;20022;-63
2023/01/09 12:45:36;;;;;;;4.85;0.60;;;13.40;88.40;;;;;;5105786;28;20035;-63
2023/01/09 12:48:36;;;;;;;6.25;0.90;;;12.90;90.00;;;;;;5109867;28;20024;-63
2023/01/09 12:51:34;;;;;;;3.88;0.82;;;12.50;91.00;;;;;;5110309;28;20030;-63
2023/01/09 12:54:25;;;;;;;2.65;0.40;;;11.90;91.80;;;;;;5112401;28;20084;-63
2023/01/09 12:57:01;;;;;;;4.30;0.57;;;11.60;92.80;;;;;;5103708;28;20020;-63
2023/01/09 12:59:38;;;;;;;3.72;0.77;;;11.30;94.10;;;;;;5095780;28;20023;-63
2023/01/09 13:02:26;;;;;;;4.88;1.08;;;11.20;95.30;;;;;;5107770;28;20023;-63
2023/01/09 13:04:59;;;;;;;4.03;0.77;;;11.10;96.20;;;;;;5108947;28;21024;-63
2023/01/09 13:07:45;;;;;;;2.72;0.80;;;11.10;97.40;;;;;;5104391;28;20477;-63
2023/01/09 13:10:32;;;;;;;6.38;0.85;;;11.20;97.90;;;;;;5101578;28;20022;-63
2023/01/09 13:13:05;;;;;;;2.78;0.60;;;11.70;97.40;;;;;;5089980;28;20027;-63
2023/01/09 13:15:40;;;;;;;4.13;0.57;;;11.70;97.10;;;;;;5101252;28;20073;-63
2023/01/09 13:18:32;;;;;;;3.03;0.70;;;11.60;97.10;;;;;;5112264;28;20020;-63
2023/01/09 13:20:58;;;;;;;6.30;1.17;;;11.50;97.40;;;;;;5094294;28;20020;-63
2023/01/09 13:23:38;;;;;;;5.00;1.42;;;11.40;97.90;;;;;;5104388;28;20027;-63
2023/01/09 13:26:08;;;;;;;5.47;1.00;;;11.20;98.40;;;;;;5098916;28;20031;-63
2023/01/09 13:28:41;;;;;;;7.25;1.45;;;11.00;98.90;;;;;;5080033;28;20098;-63